Terminal Aerodrome Forecast
Issued by NWS

Home | Current Version | Previous Version | Text Only | Print | Product List | Glossary On
Versions: 1 2 3 4 5 6 7 8 9 10 11 12 13 14
351
FTUS43 KUNR 060520
TAFGCC
TAF
KGCC 060520Z 0606/0706 22013KT P6SM BKN250
     FM061000 27017G27KT P6SM BKN200
     FM062200 31020G30KT P6SM BKN100=

USA.gov is the U.S. government's official web portal to all federal, state and local government web resources and services.